Time;durP1;ratioP1;P1;durP2;ratioP2;P2;SDS_P1;SDS_P2;PMS_P1;PMS_P2;Temp;Humidity;BMP_temperature;BMP_pressure;BME280_temperature;BME280_humidity;BME280_pressure;Samples;Min_cycle;Max_cycle;Signal;HPM_P1;HPM_P2
2021/07/11 00:01:24;;;;;;;18.07;16.47;;;18.90;1.00;;;;;;5100944;27;20453;-78
2021/07/11 00:03:50;;;;;;;15.83;14.50;;;18.90;1.00;;;;;;5101043;27;20450;-77
2021/07/11 00:06:17;;;;;;;15.90;14.60;;;18.80;1.00;;;;;;5096999;27;20633;-78
2021/07/11 00:08:44;;;;;;;17.43;15.90;;;18.70;1.00;;;;;;5097884;27;20474;-79
2021/07/11 00:11:10;;;;;;;16.23;14.80;;;18.70;1.00;;;;;;5099992;27;20454;-81
2021/07/11 00:13:38;;;;;;;16.97;15.47;;;18.70;1.00;;;;;;5097532;27;21085;-79
2021/07/11 00:16:05;;;;;;;16.43;15.03;;;18.70;1.00;;;;;;5098151;27;20461;-78
2021/07/11 00:18:32;;;;;;;16.40;15.00;;;18.60;1.00;;;;;;5099168;27;20446;-77
2021/07/11 00:20:59;;;;;;;16.87;14.87;;;18.60;1.00;;;;;;5099616;27;20944;-80
2021/07/11 00:23:25;;;;;;;15.30;14.10;;;18.60;1.00;;;;;;5098480;27;20450;-77
2021/07/11 00:25:52;;;;;;;15.83;14.33;;;18.60;1.00;;;;;;5098347;27;21349;-78
2021/07/11 00:28:19;;;;;;;15.13;13.93;;;18.60;1.00;;;;;;5100802;27;20500;-79
2021/07/11 00:30:47;;;;;;;15.70;14.30;;;18.50;1.00;;;;;;5095580;27;20455;-80
2021/07/11 00:33:14;;;;;;;15.47;14.20;;;18.50;1.00;;;;;;5098880;27;20461;-81
2021/07/11 00:35:40;;;;;;;15.03;13.73;;;18.50;1.00;;;;;;5100999;27;20457;-78
2021/07/11 00:38:07;;;;;;;16.33;14.73;;;18.40;1.00;;;;;;5098784;27;20961;-79
2021/07/11 00:40:33;;;;;;;15.37;14.07;;;18.40;1.00;;;;;;5098371;27;20525;-77
2021/07/11 00:43:00;;;;;;;16.47;15.10;;;18.40;1.00;;;;;;5098196;27;20421;-80
2021/07/11 00:45:26;;;;;;;15.93;14.43;;;18.40;1.00;;;;;;5100922;27;20418;-76
2021/07/11 00:47:54;;;;;;;15.50;14.17;;;18.40;1.00;;;;;;5094916;27;20907;-78
2021/07/11 00:50:21;;;;;;;15.87;14.40;;;18.40;1.00;;;;;;5095720;27;20446;-77
2021/07/11 00:52:48;;;;;;;17.33;15.93;;;18.40;1.00;;;;;;5097103;27;20549;-78
2021/07/11 00:55:14;;;;;;;16.73;15.07;;;18.30;1.00;;;;;;5103874;27;20454;-80
2021/07/11 00:57:41;;;;;;;16.07;14.63;;;18.30;1.00;;;;;;5106124;27;20497;-78
2021/07/11 01:00:10;;;;;;;13.33;12.30;;;18.30;1.00;;;;;;5101992;27;20440;-80
2021/07/11 01:02:44;;;;;;;15.93;14.40;;;18.30;1.00;;;;;;5102469;27;20440;-78
2021/07/11 01:05:15;;;;;;;15.37;14.17;;;18.30;1.00;;;;;;5100671;27;20454;-78
2021/07/11 01:07:46;;;;;;;15.33;13.93;;;18.20;1.00;;;;;;5105576;27;20472;-80
2021/07/11 01:10:18;;;;;;;13.97;12.87;;;18.20;1.00;;;;;;5122898;27;20406;-80
2021/07/11 01:12:47;;;;;;;16.10;14.70;;;18.20;1.00;;;;;;5134157;27;20421;-76
2021/07/11 01:15:14;;;;;;;15.23;14.00;;;18.20;1.00;;;;;;5134916;27;20501;-79
2021/07/11 01:17:42;;;;;;;14.87;13.57;;;18.20;1.00;;;;;;5116433;22;20454;-77
2021/07/11 01:20:26;;;;;;;14.73;13.43;;;18.20;1.00;;;;;;5088102;28;21116;-78
2021/07/11 01:22:56;;;;;;;14.50;13.30;;;18.20;1.00;;;;;;5091896;28;21018;-79
2021/07/11 01:25:42;;;;;;;15.00;13.60;;;18.10;1.00;;;;;;5088600;28;20521;-79
2021/07/11 01:28:11;;;;;;;15.37;13.90;;;18.00;1.00;;;;;;5086850;28;20473;-78
2021/07/11 01:30:39;;;;;;;14.73;13.57;;;18.00;1.00;;;;;;5082732;28;20405;-79
2021/07/11 01:33:07;;;;;;;14.07;12.77;;;18.00;1.00;;;;;;5080702;28;20458;-79
2021/07/11 01:35:36;;;;;;;14.53;13.30;;;18.00;1.00;;;;;;5087537;28;20438;-78
2021/07/11 01:38:03;;;;;;;13.50;12.43;;;18.00;1.00;;;;;;5088705;28;20458;-79
2021/07/11 01:40:32;;;;;;;14.17;12.97;;;18.00;1.00;;;;;;5093587;28;20448;-77
2021/07/11 01:43:02;;;;;;;14.93;13.73;;;18.00;1.00;;;;;;5099643;28;22210;-78
2021/07/11 01:45:29;;;;;;;14.80;13.60;;;18.00;1.00;;;;;;5096890;28;21240;-81
2021/07/11 01:47:57;;;;;;;14.70;13.50;;;18.00;1.00;;;;;;5085966;28;20461;-78
2021/07/11 01:50:25;;;;;;;15.70;14.27;;;18.00;1.00;;;;;;5084834;28;20421;-78
2021/07/11 01:52:53;;;;;;;14.57;13.37;;;18.00;1.00;;;;;;5080223;28;20438;-79
2021/07/11 01:55:21;;;;;;;16.30;14.67;;;17.90;1.00;;;;;;5083372;28;20865;-78
2021/07/11 01:57:49;;;;;;;16.37;14.90;;;17.90;1.00;;;;;;5081508;28;20450;-79
2021/07/11 02:00:18;;;;;;;15.17;13.67;;;17.80;1.00;;;;;;5086725;28;20531;-78
2021/07/11 02:02:46;;;;;;;14.17;13.07;;;17.90;1.00;;;;;;5078888;28;21390;-80
2021/07/11 02:05:15;;;;;;;15.37;13.97;;;17.80;1.00;;;;;;5090559;28;20442;-80
2021/07/11 02:07:42;;;;;;;14.40;13.10;;;17.80;1.00;;;;;;5082714;28;21115;-80
2021/07/11 02:10:11;;;;;;;14.83;13.43;;;17.90;1.00;;;;;;5084655;28;20454;-78
2021/07/11 02:12:43;;;;;;;14.17;12.77;;;17.80;1.00;;;;;;5084986;28;20461;-79
2021/07/11 02:15:10;;;;;;;14.97;13.67;;;17.80;1.00;;;;;;5101121;27;20449;-80
2021/07/11 02:17:43;;;;;;;15.17;13.87;;;17.70;1.00;;;;;;5105486;27;20655;-79
2021/07/11 02:20:11;;;;;;;14.87;13.67;;;17.70;1.00;;;;;;5091636;28;20461;-80
2021/07/11 02:22:42;;;;;;;14.47;13.30;;;17.80;1.00;;;;;;5089487;28;20447;-79
2021/07/11 02:25:10;;;;;;;14.63;13.33;;;17.70;1.00;;;;;;5085595;28;20527;-78
2021/07/11 02:27:38;;;;;;;15.23;13.93;;;17.70;1.00;;;;;;5090571;28;20470;-79
2021/07/11 02:30:11;;;;;;;15.07;13.77;;;17.70;1.00;;;;;;5077673;28;20539;-79
2021/07/11 02:32:43;;;;;;;14.57;13.47;;;17.60;1.00;;;;;;5084155;28;21412;-78
2021/07/11 02:35:10;;;;;;;15.30;13.90;;;17.60;1.00;;;;;;5079387;28;21374;-79
2021/07/11 02:37:37;;;;;;;15.60;14.40;;;17.60;1.00;;;;;;5080760;28;20441;-78
2021/07/11 02:40:05;;;;;;;13.43;12.43;;;17.50;1.00;;;;;;5076771;28;20422;-78
2021/07/11 02:42:32;;;;;;;14.47;13.17;;;17.40;1.00;;;;;;5088449;27;20442;-79
2021/07/11 02:44:59;;;;;;;14.80;13.40;;;17.40;1.00;;;;;;5078969;28;20405;-78
2021/07/11 02:47:30;;;;;;;14.97;13.67;;;17.40;1.00;;;;;;5080000;28;20543;-78
2021/07/11 02:50:01;;;;;;;14.37;13.17;;;17.40;1.00;;;;;;5081215;28;20568;-79
2021/07/11 02:52:29;;;;;;;16.67;14.97;;;17.40;1.00;;;;;;5084127;28;20461;-79
2021/07/11 02:54:59;;;;;;;15.00;13.70;;;17.40;1.00;;;;;;5079673;28;20454;-78
2021/07/11 02:57:28;;;;;;;15.07;13.77;;;17.40;1.00;;;;;;5081308;28;20477;-77
2021/07/11 02:59:56;;;;;;;15.30;13.80;;;17.30;1.00;;;;;;5071570;28;20434;-79
2021/07/11 03:02:26;;;;;;;14.13;12.90;;;17.40;1.00;;;;;;5080811;28;20434;-78
2021/07/11 03:04:53;;;;;;;16.37;15.07;;;17.30;1.00;;;;;;5091016;28;20457;-79
2021/07/11 03:07:21;;;;;;;15.17;13.73;;;17.30;1.00;;;;;;5088973;28;20457;-80
2021/07/11 03:09:48;;;;;;;14.37;13.17;;;17.30;1.00;;;;;;5083129;28;20480;-79
2021/07/11 03:12:18;;;;;;;15.20;13.80;;;17.30;1.00;;;;;;5081770;28;21106;-78
2021/07/11 03:14:49;;;;;;;14.27;13.07;;;17.30;1.00;;;;;;5080199;28;20461;-81
2021/07/11 03:17:18;;;;;;;15.80;14.50;;;17.20;1.00;;;;;;5080274;28;20472;-80
2021/07/11 03:19:46;;;;;;;14.90;13.77;;;17.20;1.00;;;;;;5080606;28;20978;-79
2021/07/11 03:22:16;;;;;;;15.07;13.77;;;17.20;1.00;;;;;;5076757;28;20444;-78
2021/07/11 03:24:46;;;;;;;13.93;12.73;;;17.30;1.00;;;;;;5080349;28;24004;-78
2021/07/11 03:27:13;;;;;;;15.37;13.90;;;17.30;1.00;;;;;;5076288;28;21264;-79
2021/07/11 03:29:52;;;;;;;15.50;14.20;;;17.40;1.00;;;;;;5079938;28;20497;-78
2021/07/11 03:32:20;;;;;;;16.50;15.10;;;17.40;1.00;;;;;;5075981;28;20512;-78
2021/07/11 03:34:48;;;;;;;13.43;12.27;;;17.40;1.00;;;;;;5078939;28;20453;-79
2021/07/11 03:37:16;;;;;;;14.30;13.00;;;17.40;1.00;;;;;;5077665;28;20464;-79
2021/07/11 03:39:48;;;;;;;14.90;13.60;;;17.40;1.00;;;;;;5079025;28;21599;-78
2021/07/11 03:42:16;;;;;;;15.37;14.07;;;17.40;1.00;;;;;;5079089;28;20437;-81
2021/07/11 03:44:47;;;;;;;14.47;13.10;;;17.40;1.00;;;;;;5077254;28;20469;-79
2021/07/11 03:47:18;;;;;;;15.17;13.67;;;17.40;1.00;;;;;;5079937;28;20486;-78
2021/07/11 03:49:49;;;;;;;13.77;12.70;;;17.40;1.00;;;;;;5080038;28;21297;-81
2021/07/11 03:52:20;;;;;;;23.43;21.13;;;17.40;1.00;;;;;;5083302;28;20474;-78
2021/07/11 03:54:49;;;;;;;14.70;13.50;;;17.40;1.00;;;;;;5080304;28;20469;-78
2021/07/11 03:57:16;;;;;;;14.00;12.63;;;17.40;1.00;;;;;;5089942;28;20501;-78
2021/07/11 03:59:46;;;;;;;14.17;13.00;;;17.40;1.00;;;;;;5085376;28;20730;-80
2021/07/11 04:02:14;;;;;;;13.73;12.53;;;17.50;1.00;;;;;;5082647;28;20449;-78
2021/07/11 04:04:43;;;;;;;12.53;11.53;;;17.50;1.00;;;;;;5078339;28;20453;-79
2021/07/11 04:07:12;;;;;;;12.67;11.57;;;17.50;1.00;;;;;;5099617;28;20494;-79
2021/07/11 04:09:40;;;;;;;14.33;13.03;;;17.50;1.00;;;;;;5093695;28;20559;-79
2021/07/11 04:12:11;;;;;;;15.40;13.07;;;17.50;1.00;;;;;;5094274;28;20422;-78
2021/07/11 04:14:38;;;;;;;14.43;13.03;;;17.50;1.00;;;;;;5092841;28;20446;-78
2021/07/11 04:17:08;;;;;;;13.00;12.00;;;17.60;1.00;;;;;;5090789;28;21495;-79
2021/07/11 04:19:37;;;;;;;13.20;12.20;;;17.60;1.00;;;;;;5077836;28;20446;-79
2021/07/11 04:22:07;;;;;;;14.17;12.90;;;17.60;1.00;;;;;;5079492;28;20454;-81
2021/07/11 04:24:35;;;;;;;14.10;12.73;;;17.70;1.00;;;;;;5079753;28;20453;-79
2021/07/11 04:27:02;;;;;;;14.20;13.00;;;17.70;1.00;;;;;;5069061;28;20442;-81
2021/07/11 04:29:33;;;;;;;13.93;12.73;;;17.70;1.00;;;;;;5070812;28;20460;-79
2021/07/11 04:32:01;;;;;;;13.33;12.23;;;17.80;1.00;;;;;;5081687;28;20499;-78
2021/07/11 04:34:30;;;;;;;13.87;12.73;;;17.90;1.00;;;;;;5078280;28;20421;-79
2021/07/11 04:37:00;;;;;;;13.50;12.37;;;17.90;1.00;;;;;;5080791;28;20468;-78
2021/07/11 04:39:27;;;;;;;14.60;13.13;;;18.00;1.00;;;;;;5080081;28;20433;-78
2021/07/11 04:41:55;;;;;;;14.27;13.00;;;18.00;1.00;;;;;;5078970;28;21003;-78
2021/07/11 04:44:23;;;;;;;14.13;12.83;;;18.00;1.00;;;;;;5079371;28;20634;-79
2021/07/11 04:46:51;;;;;;;13.70;12.63;;;18.10;1.00;;;;;;5077517;28;21220;-78
2021/07/11 04:49:18;;;;;;;13.87;12.53;;;18.20;1.00;;;;;;5069920;28;20466;-78
2021/07/11 04:51:44;;;;;;;14.13;12.97;;;18.30;1.00;;;;;;5079962;28;20403;-80
2021/07/11 04:54:11;;;;;;;13.10;12.00;;;18.30;1.00;;;;;;5088181;28;20407;-78
2021/07/11 04:56:38;;;;;;;13.37;12.17;;;18.30;1.00;;;;;;5097507;28;20480;-77
2021/07/11 04:59:05;;;;;;;13.87;12.63;;;18.50;1.00;;;;;;5099355;28;20410;-78
2021/07/11 05:01:32;;;;;;;13.70;12.47;;;18.60;1.00;;;;;;5107390;27;20469;-78
2021/07/11 05:04:00;;;;;;;12.77;11.70;;;18.60;1.00;;;;;;5102670;27;20494;-80
2021/07/11 05:06:27;;;;;;;13.63;12.43;;;18.70;1.00;;;;;;5087126;28;20470;-78
2021/07/11 05:08:54;;;;;;;13.27;12.17;;;18.70;1.00;;;;;;5085856;28;21233;-80
2021/07/11 05:11:21;;;;;;;12.80;11.80;;;18.80;1.00;;;;;;5085559;28;20485;-78
2021/07/11 05:13:48;;;;;;;13.20;12.07;;;18.80;1.00;;;;;;5080287;28;20526;-79
2021/07/11 05:16:14;;;;;;;13.13;11.97;;;18.90;1.00;;;;;;5076890;28;20422;-79
2021/07/11 05:18:41;;;;;;;13.03;12.03;;;19.00;1.00;;;;;;5079821;28;21592;-79
2021/07/11 05:21:09;;;;;;;12.67;11.47;;;19.00;1.00;;;;;;5077879;28;20490;-79
2021/07/11 05:23:36;;;;;;;12.97;11.90;;;19.00;1.00;;;;;;5073869;28;20407;-80
2021/07/11 05:26:03;;;;;;;13.00;12.00;;;19.10;1.00;;;;;;5078725;28;20480;-79
2021/07/11 05:28:29;;;;;;;13.60;12.50;;;19.20;1.00;;;;;;5088758;28;20534;-79
2021/07/11 05:30:56;;;;;;;12.30;11.30;;;19.20;1.00;;;;;;5079035;28;20565;-79
2021/07/11 05:33:23;;;;;;;13.10;12.00;;;19.20;1.00;;;;;;5079406;28;20474;-79
2021/07/11 05:35:50;;;;;;;12.40;11.40;;;19.30;1.00;;;;;;5080550;27;20453;-79
2021/07/11 05:38:18;;;;;;;12.30;11.30;;;19.30;1.00;;;;;;5075091;28;20731;-79
2021/07/11 05:40:45;;;;;;;11.33;10.33;;;19.40;1.00;;;;;;5076641;28;20479;-79
2021/07/11 05:43:11;;;;;;;11.50;10.60;;;19.50;1.00;;;;;;5080935;28;22679;-78
2021/07/11 05:45:38;;;;;;;11.93;11.03;;;19.70;1.00;;;;;;5080917;28;20459;-79
2021/07/11 05:48:05;;;;;;;12.43;11.27;;;19.80;1.00;;;;;;5080618;28;20455;-80
2021/07/11 05:50:32;;;;;;;11.07;9.93;;;19.80;1.00;;;;;;5086724;28;20439;-79
2021/07/11 05:52:59;;;;;;;11.80;10.90;;;19.90;1.00;;;;;;5080371;28;20493;-79
2021/07/11 05:55:27;;;;;;;11.13;10.00;;;20.10;1.00;;;;;;5084853;28;20470;-79
2021/07/11 05:57:54;;;;;;;11.07;10.07;;;20.10;1.00;;;;;;5081456;28;20931;-78
2021/07/11 06:00:21;;;;;;;10.33;9.43;;;20.20;1.00;;;;;;5077938;28;20448;-75
2021/07/11 06:02:47;;;;;;;10.93;10.03;;;20.40;1.00;;;;;;5071931;28;20459;-74
2021/07/11 06:05:14;;;;;;;11.03;9.97;;;20.40;1.00;;;;;;5073549;28;20446;-73
2021/07/11 06:07:41;;;;;;;10.87;9.97;;;20.50;1.00;;;;;;5074891;28;20511;-75
2021/07/11 06:10:10;;;;;;;10.50;9.70;;;20.60;1.00;;;;;;5075098;28;20478;-75
2021/07/11 06:12:38;;;;;;;10.67;9.87;;;20.70;1.00;;;;;;5073584;28;21032;-76
2021/07/11 06:15:06;;;;;;;10.73;9.93;;;20.70;1.00;;;;;;5074997;28;20915;-76
2021/07/11 06:17:33;;;;;;;9.60;8.90;;;20.70;1.00;;;;;;5074121;28;20996;-76
2021/07/11 06:20:00;;;;;;;16.27;14.97;;;20.90;1.00;;;;;;5076578;28;20460;-74
2021/07/11 06:22:27;;;;;;;9.90;8.90;;;21.00;1.00;;;;;;5075619;28;20451;-74
2021/07/11 06:24:54;;;;;;;9.83;9.03;;;21.20;1.00;;;;;;5073271;28;20960;-74
2021/07/11 06:27:22;;;;;;;9.17;8.33;;;21.30;1.00;;;;;;5073545;28;20435;-75
2021/07/11 06:29:51;;;;;;;9.30;8.37;;;21.50;1.00;;;;;;5074218;28;20470;-74
2021/07/11 06:32:17;;;;;;;9.00;8.20;;;21.60;1.00;;;;;;5074717;28;20464;-75
2021/07/11 06:34:44;;;;;;;8.77;8.00;;;21.70;1.00;;;;;;5074977;28;20528;-76
2021/07/11 06:37:11;;;;;;;7.90;7.30;;;21.90;1.00;;;;;;5078486;28;20445;-76
2021/07/11 06:39:37;;;;;;;7.33;6.73;;;22.00;1.00;;;;;;5089765;28;20413;-74
2021/07/11 06:42:04;;;;;;;7.30;6.80;;;22.10;1.00;;;;;;5110938;27;20486;-72
2021/07/11 06:44:31;;;;;;;7.30;6.80;;;22.30;1.00;;;;;;5107127;28;20424;-75
2021/07/11 06:46:59;;;;;;;7.73;7.13;;;22.30;1.00;;;;;;5110760;28;20442;-74
2021/07/11 06:49:26;;;;;;;7.70;6.70;;;22.30;1.00;;;;;;5110077;27;20410;-72
2021/07/11 06:51:52;;;;;;;6.70;6.07;;;22.40;1.00;;;;;;5111430;28;20474;-75
2021/07/11 06:54:19;;;;;;;6.60;6.10;;;22.40;1.00;;;;;;5107580;27;20425;-73
2021/07/11 06:56:45;;;;;;;7.00;6.40;;;22.40;1.00;;;;;;5111466;27;20496;-75
2021/07/11 06:59:12;;;;;;;7.40;6.80;;;22.50;1.00;;;;;;5107656;28;20474;-74
2021/07/11 07:01:39;;;;;;;6.90;6.40;;;22.70;1.00;;;;;;5100753;28;20422;-75
2021/07/11 07:04:07;;;;;;;7.23;6.63;;;22.90;1.00;;;;;;5106622;28;20432;-73
2021/07/11 07:06:33;;;;;;;6.40;5.90;;;22.80;1.00;;;;;;5104402;28;20403;-72
2021/07/11 07:09:00;;;;;;;7.10;6.50;;;22.80;1.00;;;;;;5103736;27;20450;-73
2021/07/11 07:11:27;;;;;;;5.60;5.10;;;22.90;1.00;;;;;;5090239;28;20421;-74
2021/07/11 07:13:53;;;;;;;5.70;5.30;;;23.00;1.00;;;;;;5092974;28;20429;-74
2021/07/11 07:16:20;;;;;;;6.27;5.80;;;23.10;1.00;;;;;;5093741;28;20447;-73
2021/07/11 07:18:46;;;;;;;5.57;5.17;;;23.20;1.00;;;;;;5092635;28;20486;-73
2021/07/11 07:21:14;;;;;;;5.70;5.30;;;23.20;1.00;;;;;;5087306;28;20429;-74
2021/07/11 07:23:41;;;;;;;5.37;4.97;;;23.20;1.00;;;;;;5079678;28;20469;-73
2021/07/11 07:26:08;;;;;;;5.77;5.33;;;23.20;1.00;;;;;;5078892;28;20648;-74
2021/07/11 07:28:35;;;;;;;5.13;4.70;;;23.30;1.00;;;;;;5077284;28;20442;-75
2021/07/11 07:31:01;;;;;;;5.80;5.40;;;23.30;1.00;;;;;;5079090;28;20471;-75
2021/07/11 07:33:28;;;;;;;5.50;5.00;;;23.50;1.00;;;;;;5079572;28;20454;-74
2021/07/11 07:35:55;;;;;;;5.87;5.47;;;23.60;1.00;;;;;;5076746;28;20557;-75
2021/07/11 07:38:23;;;;;;;5.27;4.87;;;23.60;1.00;;;;;;5074253;28;21001;-76
2021/07/11 07:40:51;;;;;;;6.10;5.60;;;23.70;1.00;;;;;;5075196;28;22622;-75
2021/07/11 07:43:17;;;;;;;5.50;5.10;;;23.80;1.00;;;;;;5096324;28;20455;-74
2021/07/11 07:45:45;;;;;;;5.77;5.37;;;23.90;1.00;;;;;;5094503;28;20416;-74
2021/07/11 07:48:13;;;;;;;5.80;5.40;;;24.00;1.00;;;;;;5110925;27;20440;-76
2021/07/11 07:50:40;;;;;;;5.67;5.10;;;24.10;1.00;;;;;;5089388;28;20446;-74
2021/07/11 07:53:07;;;;;;;5.20;4.90;;;24.00;1.00;;;;;;5081359;28;20448;-73
2021/07/11 07:55:35;;;;;;;5.93;5.43;;;24.10;1.00;;;;;;5071414;28;20818;-75
2021/07/11 07:58:03;;;;;;;5.40;4.83;;;24.20;1.00;;;;;;5075957;28;20460;-75
2021/07/11 08:00:30;;;;;;;5.20;4.80;;;24.30;1.00;;;;;;5071188;28;20542;-73
2021/07/11 08:02:59;;;;;;;4.87;4.47;;;24.50;1.00;;;;;;5074494;28;20460;-75
2021/07/11 08:05:26;;;;;;;5.40;4.63;;;24.60;1.00;;;;;;5073506;28;20447;-75
2021/07/11 08:07:53;;;;;;;5.03;4.73;;;24.80;1.00;;;;;;5071526;28;20468;-76
2021/07/11 08:10:20;;;;;;;4.80;4.50;;;24.90;1.00;;;;;;5068868;28;20620;-76
2021/07/11 08:12:48;;;;;;;5.10;4.60;;;25.10;1.00;;;;;;5087764;22;20425;-78
2021/07/11 08:15:16;;;;;;;5.20;4.80;;;25.20;1.00;;;;;;5091556;27;20527;-77
2021/07/11 08:17:44;;;;;;;5.10;4.60;;;25.30;1.00;;;;;;5084901;27;21268;-79
2021/07/11 08:20:12;;;;;;;5.27;4.97;;;25.50;1.00;;;;;;5087021;27;20764;-77
2021/07/11 08:22:40;;;;;;;5.67;5.27;;;25.50;1.00;;;;;;5084320;28;20434;-78
2021/07/11 08:25:08;;;;;;;5.93;5.53;;;25.50;1.00;;;;;;5061781;28;20452;-77
2021/07/11 08:27:35;;;;;;;5.43;4.83;;;25.60;1.00;;;;;;5065444;28;20468;-77
2021/07/11 08:30:05;;;;;;;5.20;4.80;;;25.70;1.00;;;;;;5064154;28;20451;-77
2021/07/11 08:32:32;;;;;;;5.57;5.17;;;25.90;1.00;;;;;;5062751;28;21637;-78
2021/07/11 08:34:59;;;;;;;4.87;4.57;;;26.00;1.00;;;;;;5061205;28;20488;-77
2021/07/11 08:37:25;;;;;;;5.33;5.03;;;26.00;1.00;;;;;;5058895;28;20431;-77
2021/07/11 08:39:52;;;;;;;5.27;4.87;;;26.20;1.00;;;;;;5062780;28;21513;-77
2021/07/11 08:42:20;;;;;;;5.57;5.17;;;26.30;1.00;;;;;;5062886;28;20439;-77
2021/07/11 08:44:47;;;;;;;5.23;4.73;;;26.40;1.00;;;;;;5061845;28;20428;-77
2021/07/11 08:47:15;;;;;;;5.20;4.80;;;26.70;1.00;;;;;;5061194;28;20441;-78
2021/07/11 08:49:42;;;;;;;5.00;4.70;;;26.90;1.00;;;;;;5066886;28;20455;-78
2021/07/11 08:52:09;;;;;;;4.70;4.30;;;27.10;1.00;;;;;;5063994;28;20484;-78
2021/07/11 08:54:37;;;;;;;7.93;5.40;;;27.20;1.00;;;;;;5062208;28;20930;-77
2021/07/11 08:57:05;;;;;;;5.23;4.83;;;27.20;1.00;;;;;;5059834;28;20425;-76
2021/07/11 08:59:33;;;;;;;4.87;4.37;;;27.30;1.00;;;;;;5059021;28;20557;-77
2021/07/11 09:02:00;;;;;;;5.23;4.47;;;27.30;1.00;;;;;;5065497;28;21123;-78
2021/07/11 09:04:38;;;;;;;5.00;3.90;;;27.40;1.00;;;;;;5061579;28;21203;-75
2021/07/11 09:07:05;;;;;;;4.80;4.30;;;27.60;1.00;;;;;;5061160;28;20463;-76
2021/07/11 09:09:34;;;;;;;5.03;4.47;;;27.60;1.00;;;;;;5058091;28;20540;-76
2021/07/11 09:12:03;;;;;;;5.17;4.77;;;27.70;1.00;;;;;;5060448;28;20480;-77
2021/07/11 09:14:32;;;;;;;4.80;4.50;;;27.70;1.00;;;;;;5056471;28;21082;-76
2021/07/11 09:17:00;;;;;;;4.80;4.40;;;27.70;1.00;;;;;;5063258;28;20519;-81
2021/07/11 09:19:31;;;;;;;4.60;4.27;;;27.80;1.00;;;;;;5081544;28;20465;-81
2021/07/11 09:22:00;;;;;;;4.40;4.00;;;28.00;1.00;;;;;;5079082;28;20463;-82
2021/07/11 09:24:28;;;;;;;5.23;4.93;;;27.90;1.00;;;;;;5071764;28;20466;-82
2021/07/11 09:27:05;;;;;;;3.90;3.60;;;27.80;1.00;;;;;;5079043;28;20912;-81
2021/07/11 09:29:33;;;;;;;4.40;4.10;;;28.00;1.00;;;;;;5070565;28;20749;-81
2021/07/11 09:32:00;;;;;;;4.40;4.00;;;27.90;1.00;;;;;;5076289;28;20474;-82
2021/07/11 09:34:29;;;;;;;4.93;3.97;;;28.00;1.00;;;;;;5081401;28;20411;-82
2021/07/11 09:37:11;;;;;;;3.93;3.63;;;28.20;1.00;;;;;;5079230;28;20451;-82
2021/07/11 09:39:46;;;;;;;4.93;4.53;;;28.40;1.00;;;;;;5075674;28;21382;-82
2021/07/11 09:42:24;;;;;;;4.20;3.87;;;28.70;1.00;;;;;;5077585;28;20434;-82
2021/07/11 09:44:51;;;;;;;5.97;5.47;;;29.20;1.00;;;;;;5076756;28;20421;-80
2021/07/11 09:47:19;;;;;;;5.83;4.00;;;30.10;1.00;;;;;;5076280;28;20443;-82
2021/07/11 09:50:00;;;;;;;5.30;4.00;;;31.10;1.00;;;;;;5079332;28;20469;-82
2021/07/11 09:52:29;;;;;;;4.50;4.20;;;32.40;1.00;;;;;;5074977;28;20478;-82
2021/07/11 09:54:57;;;;;;;4.27;3.87;;;32.80;1.00;;;;;;5073183;28;20438;-82
2021/07/11 09:57:32;;;;;;;4.53;4.13;;;32.80;1.00;;;;;;5078565;28;20465;-81
2021/07/11 10:00:04;;;;;;;4.27;3.97;;;33.00;1.00;;;;;;5078175;28;20450;-82
2021/07/11 10:02:31;;;;;;;3.67;3.37;;;33.20;1.00;;;;;;5071704;28;20457;-82
2021/07/11 10:04:59;;;;;;;4.30;3.90;;;33.60;1.00;;;;;;5074573;28;20426;-82
2021/07/11 10:07:26;;;;;;;3.87;3.57;;;34.00;1.00;;;;;;5075825;28;20475;-82
2021/07/11 10:09:52;;;;;;;4.30;4.00;;;34.50;1.00;;;;;;5073107;28;20448;-80
2021/07/11 10:12:19;;;;;;;3.87;3.60;;;34.80;1.00;;;;;;5070871;28;20572;-82
2021/07/11 10:14:46;;;;;;;5.50;3.67;;;34.40;1.00;;;;;;5074602;28;20426;-83
2021/07/11 10:17:15;;;;;;;3.83;3.50;;;34.70;1.00;;;;;;5072721;28;20408;-84
2021/07/11 10:19:46;;;;;;;4.30;4.00;;;35.60;1.00;;;;;;5076201;28;20438;-80
2021/07/11 10:22:16;;;;;;;4.33;4.03;;;36.40;1.00;;;;;;5069506;28;20534;-82
2021/07/11 10:24:46;;;;;;;3.40;3.20;;;36.30;1.00;;;;;;5072872;28;20442;-82
2021/07/11 10:27:22;;;;;;;4.53;3.97;;;35.10;1.00;;;;;;5071543;28;20831;-82
2021/07/11 10:29:50;;;;;;;3.93;3.73;;;35.10;1.00;;;;;;5083337;28;21826;-82
2021/07/11 10:32:22;;;;;;;3.17;2.97;;;35.50;1.00;;;;;;5082250;28;20474;-82
2021/07/11 10:34:49;;;;;;;4.20;3.80;;;36.30;1.00;;;;;;5073064;28;20860;-83
2021/07/11 10:37:22;;;;;;;4.20;4.00;;;36.80;1.00;;;;;;5075889;28;20900;-82
2021/07/11 10:40:04;;;;;;;4.40;4.10;;;36.90;1.00;;;;;;5071276;28;20888;-82
2021/07/11 10:42:31;;;;;;;3.50;3.30;;;36.40;1.00;;;;;;5070985;28;20424;-82
2021/07/11 10:45:04;;;;;;;3.47;3.27;;;36.60;1.00;;;;;;5077860;28;20530;-82
2021/07/11 10:47:31;;;;;;;3.50;3.20;;;37.30;1.00;;;;;;5072249;28;20451;-84
2021/07/11 10:49:57;;;;;;;3.53;3.30;;;37.80;1.00;;;;;;5075021;28;20519;-83
2021/07/11 10:52:27;;;;;;;4.03;3.70;;;38.00;1.00;;;;;;5081719;28;20493;-82
2021/07/11 10:54:56;;;;;;;6.30;3.33;;;37.90;1.00;;;;;;5096258;27;20439;-82
2021/07/11 10:57:28;;;;;;;3.77;3.57;;;38.00;1.00;;;;;;5083690;28;20441;-83
2021/07/11 10:59:56;;;;;;;3.03;2.83;;;38.00;1.00;;;;;;5077540;28;20480;-83
2021/07/11 11:02:24;;;;;;;4.50;4.20;;;38.00;1.00;;;;;;5082610;28;21037;-81
2021/07/11 11:05:01;;;;;;;3.83;3.20;;;37.60;1.00;;;;;;5076265;28;21311;-83
2021/07/11 11:07:44;;;;;;;3.50;3.20;;;37.20;1.00;;;;;;5073176;28;20552;-82
2021/07/11 11:10:28;;;;;;;3.80;3.50;;;37.60;1.00;;;;;;5075327;28;20446;-82
2021/07/11 11:13:04;;;;;;;3.77;3.47;;;38.40;1.00;;;;;;5078855;28;20433;-82
2021/07/11 11:15:37;;;;;;;3.60;3.40;;;38.50;1.00;;;;;;5075143;28;20465;-82
2021/07/11 11:18:22;;;;;;;3.60;3.30;;;38.40;1.00;;;;;;5076793;28;20461;-82
2021/07/11 11:20:55;;;;;;;3.80;3.50;;;37.60;1.00;;;;;;5072422;28;20443;-82
2021/07/11 11:23:24;;;;;;;3.60;3.30;;;36.70;1.00;;;;;;5092918;28;20451;-82
2021/07/11 11:25:51;;;;;;;4.20;3.90;;;35.70;1.00;;;;;;5076755;28;20428;-82
2021/07/11 11:28:33;;;;;;;3.63;3.33;;;34.90;1.00;;;;;;5078786;28;20434;-83
2021/07/11 11:31:08;;;;;;;3.37;3.07;;;35.50;1.00;;;;;;5076458;28;20542;-83
2021/07/11 11:33:59;;;;;;;3.63;3.37;;;37.00;1.00;;;;;;5079899;28;20461;-82
2021/07/11 11:36:29;;;;;;;3.60;3.30;;;37.20;1.00;;;;;;5075453;28;20423;-82
2021/07/11 11:39:00;;;;;;;4.20;3.80;;;36.80;1.00;;;;;;5076276;28;20412;-82
2021/07/11 11:41:27;;;;;;;3.27;3.07;;;36.30;1.00;;;;;;5078304;28;20709;-82
2021/07/11 11:44:05;;;;;;;3.30;3.10;;;37.00;1.00;;;;;;5076977;28;20518;-81
2021/07/11 11:46:32;;;;;;;3.27;3.03;;;36.00;1.00;;;;;;5067463;28;21286;-81
2021/07/11 11:49:01;;;;;;;4.07;3.77;;;36.20;1.00;;;;;;5072274;28;21293;-80
2021/07/11 11:51:28;;;;;;;3.80;3.60;;;35.70;1.00;;;;;;5073583;28;21210;-77
2021/07/11 11:53:56;;;;;;;4.03;3.53;;;34.70;1.00;;;;;;5067809;28;20459;-77
2021/07/11 11:56:23;;;;;;;4.13;3.80;;;34.20;1.00;;;;;;5063022;28;21285;-78
2021/07/11 11:58:59;;;;;;;3.93;3.43;;;35.50;1.00;;;;;;5062626;28;20994;-78
2021/07/11 12:01:30;;;;;;;3.83;3.53;;;37.20;1.00;;;;;;5062128;28;20528;-77
2021/07/11 12:04:07;;;;;;;4.60;2.97;;;38.50;1.00;;;;;;5060279;28;20465;-77
2021/07/11 12:06:34;;;;;;;2.97;2.77;;;38.40;1.00;;;;;;5063302;28;20447;-84
2021/07/11 12:09:03;;;;;;;3.33;3.13;;;39.00;1.00;;;;;;5064356;28;20454;-78
2021/07/11 12:11:30;;;;;;;4.23;3.90;;;39.00;1.00;;;;;;5067351;28;20467;-78
2021/07/11 12:14:05;;;;;;;4.37;3.10;;;39.00;1.00;;;;;;5068115;28;21156;-78
2021/07/11 12:16:32;;;;;;;3.07;2.87;;;39.30;1.00;;;;;;5069401;28;20431;-77
2021/07/11 12:18:58;;;;;;;3.40;3.20;;;39.50;1.00;;;;;;5068367;28;21293;-77
2021/07/11 12:21:28;;;;;;;4.10;3.80;;;38.10;1.00;;;;;;5068136;28;20446;-78
2021/07/11 12:23:59;;;;;;;3.50;3.23;;;36.30;1.00;;;;;;5065596;28;20430;-77
2021/07/11 12:26:28;;;;;;;4.23;3.93;;;34.70;1.00;;;;;;5068618;28;20415;-77
2021/07/11 12:28:56;;;;;;;3.60;3.40;;;33.60;1.00;;;;;;5066340;28;20991;-78
2021/07/11 12:31:24;;;;;;;3.30;3.00;;;34.10;1.00;;;;;;5066661;28;20480;-79
2021/07/11 12:33:57;;;;;;;3.70;3.40;;;35.80;1.00;;;;;;5074096;28;20466;-80
2021/07/11 12:36:24;;;;;;;3.27;2.90;;;37.30;1.00;;;;;;5067308;28;20835;-76
2021/07/11 12:38:50;;;;;;;3.97;3.67;;;37.90;1.00;;;;;;5067227;28;20941;-80
2021/07/11 12:41:17;;;;;;;3.40;3.20;;;38.60;1.00;;;;;;5064905;28;20448;-80
2021/07/11 12:43:51;;;;;;;3.13;2.93;;;37.90;1.00;;;;;;5067056;28;20455;-79
2021/07/11 12:46:23;;;;;;;3.50;3.20;;;36.00;1.00;;;;;;5064595;28;20706;-79
2021/07/11 12:48:52;;;;;;;3.30;3.10;;;35.70;1.00;;;;;;5071389;28;20412;-79
2021/07/11 12:51:21;;;;;;;3.03;2.83;;;36.60;1.00;;;;;;5069656;28;20459;-79
2021/07/11 12:53:50;;;;;;;4.10;3.80;;;37.60;1.00;;;;;;5069991;28;20478;-78
2021/07/11 12:56:18;;;;;;;3.10;2.90;;;38.70;1.00;;;;;;5073849;28;20453;-80